DAL1072 KDEN-KLAX
Flight info
| Callsign | DAL1072 |
|---|---|
| Flight time | 1h 45m |
| Altitude | 38000 |
| Route | BAYLR6 TEHRU JASSE Q90 DNERO ANJLL4 |
| Aircraft | B738/M-SDE3GHIJ2J3J5M1RVWXYZ/LB1 |
Departure
| Time | 2026-04-20 02:54 |
|---|---|
| Airport | Denver International Airport (KDEN) |
Arrival
| Time | 2026-04-20 04:40 |
|---|---|
| Airport | Los Angeles International Airport (KLAX) |
| Time | Latitude | Longitude | Altitude | Speed | Heading |
|---|---|---|---|---|---|
| 2026-04-20 02:39 | 39.86257 | -104.67476 | 5383 ft | 0 kts | 2° |
| 2026-04-20 02:42 | 39.86255 | -104.67476 | 5383 ft | 2 kts | 2° |
| 2026-04-20 02:42 | 39.86230 | -104.67477 | 5384 ft | 3 kts | 1° |
| 2026-04-20 02:42 | 39.86218 | -104.67477 | 5383 ft | 3 kts | 1° |
| 2026-04-20 02:42 | 39.86211 | -104.67478 | 5384 ft | 0 kts | 1° |
| 2026-04-20 02:43 | 39.86212 | -104.67477 | 5384 ft | 0 kts | 19° |
| 2026-04-20 02:43 | 39.86198 | -104.67464 | 5385 ft | 4 kts | 200° |
| 2026-04-20 02:43 | 39.86159 | -104.67481 | 5385 ft | 7 kts | 186° |
| 2026-04-20 02:44 | 39.86134 | -104.67444 | 5388 ft | 3 kts | 106° |
| 2026-04-20 02:44 | 39.86134 | -104.67436 | 5388 ft | 0 kts | 95° |
| 2026-04-20 02:44 | 39.86135 | -104.67451 | 5387 ft | 2 kts | 95° |
| 2026-04-20 02:44 | 39.86136 | -104.67460 | 5387 ft | 0 kts | 95° |
| 2026-04-20 02:45 | 39.86136 | -104.67461 | 5387 ft | 0 kts | 95° |
| 2026-04-20 02:47 | 39.86101 | -104.67443 | 5389 ft | 11 kts | 209° |
| 2026-04-20 02:47 | 39.86091 | -104.67591 | 5381 ft | 21 kts | 266° |
| 2026-04-20 02:47 | 39.86075 | -104.67776 | 5371 ft | 21 kts | 260° |
| 2026-04-20 02:47 | 39.86068 | -104.67986 | 5358 ft | 25 kts | 270° |
| 2026-04-20 02:48 | 39.86062 | -104.68124 | 5348 ft | 13 kts | 253° |
| 2026-04-20 02:48 | 39.86031 | -104.68251 | 5342 ft | 17 kts | 271° |
| 2026-04-20 02:48 | 39.86009 | -104.68400 | 5335 ft | 13 kts | 178° |
| 2026-04-20 02:48 | 39.85949 | -104.68395 | 5335 ft | 8 kts | 180° |
| 2026-04-20 02:49 | 39.85883 | -104.68396 | 5335 ft | 12 kts | 180° |
| 2026-04-20 02:49 | 39.85765 | -104.68398 | 5335 ft | 21 kts | 180° |
| 2026-04-20 02:49 | 39.85605 | -104.68401 | 5331 ft | 24 kts | 180° |
| 2026-04-20 02:49 | 39.85431 | -104.68402 | 5328 ft | 17 kts | 180° |
| 2026-04-20 02:50 | 39.85352 | -104.68403 | 5326 ft | 10 kts | 190° |
| 2026-04-20 02:50 | 39.85301 | -104.68491 | 5320 ft | 15 kts | 236° |
| 2026-04-20 02:50 | 39.85210 | -104.68575 | 5310 ft | 19 kts | 258° |
| 2026-04-20 02:50 | 39.85202 | -104.68766 | 5302 ft | 22 kts | 268° |
| 2026-04-20 02:51 | 39.85198 | -104.68980 | 5292 ft | 24 kts | 268° |
| 2026-04-20 02:51 | 39.85195 | -104.69197 | 5291 ft | 23 kts | 270° |
| 2026-04-20 02:51 | 39.85199 | -104.69390 | 5296 ft | 18 kts | 271° |
| 2026-04-20 02:51 | 39.85202 | -104.69534 | 5300 ft | 13 kts | 271° |
| 2026-04-20 02:52 | 39.85204 | -104.69626 | 5304 ft | 7 kts | 275° |
| 2026-04-20 02:52 | 39.85235 | -104.69666 | 5304 ft | 6 kts | 340° |
| 2026-04-20 02:52 | 39.85294 | -104.69660 | 5300 ft | 10 kts | 7° |
| 2026-04-20 02:52 | 39.85434 | -104.69657 | 5292 ft | 42 kts | 0° |
| 2026-04-20 02:53 | 39.85937 | -104.69652 | 5274 ft | 100 kts | 1° |
| 2026-04-20 02:53 | 39.86820 | -104.69640 | 5283 ft | 148 kts | 0° |
| 2026-04-20 02:53 | 39.88014 | -104.69632 | 5307 ft | 187 kts | 0° |
| 2026-04-20 02:53 | 39.89386 | -104.69661 | 5562 ft | 197 kts | 358° |
| 2026-04-20 02:54 | 39.90760 | -104.69802 | 5862 ft | 201 kts | 0° |
| 2026-04-20 02:54 | 39.92231 | -104.69846 | 6157 ft | 211 kts | 360° |
| 2026-04-20 02:54 | 39.93715 | -104.69965 | 6669 ft | 211 kts | 355° |
| 2026-04-20 02:54 | 39.95183 | -104.70167 | 7183 ft | 208 kts | 10° |
| 2026-04-20 02:55 | 39.96618 | -104.70230 | 7575 ft | 211 kts | 337° |
| 2026-04-20 02:55 | 39.97773 | -104.71362 | 7944 ft | 216 kts | 303° |
| 2026-04-20 02:55 | 39.98249 | -104.73207 | 8357 ft | 219 kts | 268° |
| 2026-04-20 02:55 | 39.97856 | -104.75105 | 8783 ft | 221 kts | 243° |
| 2026-04-20 02:56 | 39.96886 | -104.76623 | 9220 ft | 222 kts | 211° |
| 2026-04-20 02:56 | 39.95478 | -104.77483 | 9563 ft | 228 kts | 203° |
| 2026-04-20 02:56 | 39.93957 | -104.78285 | 9750 ft | 243 kts | 203° |
| 2026-04-20 02:56 | 39.92309 | -104.78873 | 10000 ft | 255 kts | 183° |
| 2026-04-20 02:57 | 39.90522 | -104.79225 | 10429 ft | 258 kts | 204° |
| 2026-04-20 02:57 | 39.88923 | -104.80295 | 10923 ft | 259 kts | 213° |
| 2026-04-20 02:57 | 39.87394 | -104.81552 | 11437 ft | 261 kts | 215° |
| 2026-04-20 02:57 | 39.85862 | -104.82896 | 11786 ft | 271 kts | 216° |
| 2026-04-20 02:58 | 39.84291 | -104.84302 | 12069 ft | 283 kts | 216° |
| 2026-04-20 02:58 | 39.82626 | -104.85802 | 12385 ft | 295 kts | 216° |
| 2026-04-20 02:58 | 39.80907 | -104.87352 | 12704 ft | 307 kts | 216° |
| 2026-04-20 02:58 | 39.79133 | -104.88950 | 13018 ft | 319 kts | 217° |
| 2026-04-20 02:59 | 39.77574 | -104.91084 | 13236 ft | 331 kts | 240° |
| 2026-04-20 02:59 | 39.76188 | -104.93512 | 13456 ft | 345 kts | 233° |
| 2026-04-20 02:59 | 39.75099 | -104.96301 | 13703 ft | 355 kts | 257° |
| 2026-04-20 02:59 | 39.74423 | -104.99382 | 14507 ft | 350 kts | 252° |
| 2026-04-20 03:00 | 39.73651 | -105.02317 | 15232 ft | 349 kts | 252° |
| 2026-04-20 03:00 | 39.72827 | -105.05343 | 15526 ft | 361 kts | 252° |
| 2026-04-20 03:00 | 39.71989 | -105.08398 | 16288 ft | 358 kts | 252° |
| 2026-04-20 03:00 | 39.71162 | -105.11418 | 16952 ft | 359 kts | 252° |
| 2026-04-20 03:01 | 39.70314 | -105.14502 | 17351 ft | 366 kts | 252° |
| 2026-04-20 03:01 | 39.69463 | -105.17590 | 18042 ft | 364 kts | 252° |
| 2026-04-20 03:01 | 39.68609 | -105.20690 | 18595 ft | 366 kts | 253° |
| 2026-04-20 03:01 | 39.67745 | -105.23825 | 18956 ft | 373 kts | 253° |
| 2026-04-20 03:02 | 39.66878 | -105.26952 | 19574 ft | 372 kts | 252° |
| 2026-04-20 03:02 | 39.65851 | -105.30083 | 20060 ft | 376 kts | 250° |
| 2026-04-20 03:02 | 39.64822 | -105.33198 | 20383 ft | 383 kts | 250° |
| 2026-04-20 03:02 | 39.63776 | -105.36360 | 21004 ft | 381 kts | 250° |
| 2026-04-20 03:03 | 39.62730 | -105.39532 | 21429 ft | 385 kts | 250° |
| 2026-04-20 03:03 | 39.61673 | -105.42737 | 21819 ft | 389 kts | 250° |
| 2026-04-20 03:03 | 39.60609 | -105.45961 | 22289 ft | 391 kts | 250° |
| 2026-04-20 03:03 | 39.59537 | -105.49194 | 22711 ft | 393 kts | 250° |
| 2026-04-20 03:04 | 39.58444 | -105.52486 | 23145 ft | 395 kts | 250° |
| 2026-04-20 03:04 | 39.57351 | -105.55769 | 23496 ft | 399 kts | 250° |
| 2026-04-20 03:04 | 39.56253 | -105.59058 | 23943 ft | 400 kts | 250° |
| 2026-04-20 03:04 | 39.55140 | -105.62349 | 24401 ft | 402 kts | 248° |
| 2026-04-20 03:05 | 39.54085 | -105.65683 | 24584 ft | 403 kts | 258° |
| 2026-04-20 03:05 | 39.53244 | -105.69137 | 24999 ft | 405 kts | 255° |
| 2026-04-20 03:05 | 39.52327 | -105.72595 | 25508 ft | 404 kts | 254° |
| 2026-04-20 03:05 | 39.51388 | -105.76037 | 25800 ft | 408 kts | 254° |
| 2026-04-20 03:06 | 39.50439 | -105.79489 | 26158 ft | 410 kts | 253° |
| 2026-04-20 03:06 | 39.49477 | -105.82960 | 26500 ft | 412 kts | 253° |
| 2026-04-20 03:06 | 39.48502 | -105.86456 | 26840 ft | 414 kts | 254° |
| 2026-04-20 03:06 | 39.47539 | -105.89922 | 27172 ft | 416 kts | 254° |
| 2026-04-20 03:07 | 39.46551 | -105.93462 | 27531 ft | 417 kts | 253° |
| 2026-04-20 03:07 | 39.45567 | -105.96991 | 27802 ft | 420 kts | 253° |
| 2026-04-20 03:07 | 39.44567 | -106.00555 | 28044 ft | 423 kts | 254° |
| 2026-04-20 03:07 | 39.43563 | -106.04140 | 28429 ft | 423 kts | 253° |
| 2026-04-20 03:08 | 39.42559 | -106.07721 | 28727 ft | 424 kts | 253° |
| 2026-04-20 03:08 | 39.41541 | -106.11346 | 28990 ft | 427 kts | 253° |
| 2026-04-20 03:08 | 39.40516 | -106.14981 | 29498 ft | 422 kts | 254° |
| 2026-04-20 03:08 | 39.39518 | -106.18526 | 29941 ft | 420 kts | 253° |
| 2026-04-20 03:09 | 39.38513 | -106.22086 | 30257 ft | 420 kts | 254° |
| 2026-04-20 03:09 | 39.37513 | -106.25629 | 30593 ft | 419 kts | 253° |
| 2026-04-20 03:09 | 39.36518 | -106.29142 | 30980 ft | 416 kts | 253° |
| 2026-04-20 03:09 | 39.35524 | -106.32642 | 31398 ft | 413 kts | 254° |
| 2026-04-20 03:10 | 39.34552 | -106.36078 | 31690 ft | 412 kts | 254° |
| 2026-04-20 03:10 | 39.33565 | -106.39558 | 31874 ft | 414 kts | 253° |
| 2026-04-20 03:10 | 39.32567 | -106.43063 | 32096 ft | 415 kts | 253° |
| 2026-04-20 03:10 | 39.31573 | -106.46548 | 32458 ft | 412 kts | 253° |
| 2026-04-20 03:11 | 39.30601 | -106.49954 | 32842 ft | 408 kts | 253° |
| 2026-04-20 03:11 | 39.29615 | -106.53415 | 33031 ft | 409 kts | 253° |
| 2026-04-20 03:11 | 39.28624 | -106.56871 | 33198 ft | 410 kts | 253° |
| 2026-04-20 03:11 | 39.27647 | -106.60276 | 33483 ft | 408 kts | 253° |
| 2026-04-20 03:12 | 39.26673 | -106.63678 | 33816 ft | 405 kts | 253° |
| 2026-04-20 03:12 | 39.25698 | -106.67082 | 33974 ft | 406 kts | 252° |
| 2026-04-20 03:12 | 39.24712 | -106.70503 | 34142 ft | 406 kts | 251° |
| 2026-04-20 03:12 | 39.23315 | -106.73701 | 34334 ft | 412 kts | 236° |
| 2026-04-20 03:13 | 39.21625 | -106.76618 | 34615 ft | 410 kts | 237° |
| 2026-04-20 03:13 | 39.19932 | -106.79573 | 34898 ft | 408 kts | 237° |
| 2026-04-20 03:13 | 39.18244 | -106.82508 | 35133 ft | 407 kts | 237° |
| 2026-04-20 03:13 | 39.16549 | -106.85445 | 35311 ft | 407 kts | 237° |
| 2026-04-20 03:14 | 39.14878 | -106.88337 | 35516 ft | 407 kts | 237° |
| 2026-04-20 03:14 | 39.13179 | -106.91272 | 35672 ft | 407 kts | 237° |
| 2026-04-20 03:14 | 39.11496 | -106.94179 | 35960 ft | 404 kts | 237° |
| 2026-04-20 03:14 | 39.09829 | -106.97054 | 36153 ft | 403 kts | 237° |
| 2026-04-20 03:15 | 39.08163 | -106.99929 | 36355 ft | 402 kts | 237° |
| 2026-04-20 03:15 | 39.06480 | -107.02827 | 36495 ft | 402 kts | 236° |
| 2026-04-20 03:15 | 39.04799 | -107.05718 | 36639 ft | 402 kts | 236° |
| 2026-04-20 03:15 | 39.03136 | -107.08571 | 36792 ft | 401 kts | 237° |
| 2026-04-20 03:16 | 39.01466 | -107.11440 | 36953 ft | 400 kts | 237° |
| 2026-04-20 03:16 | 38.99812 | -107.14277 | 37105 ft | 399 kts | 237° |
| 2026-04-20 03:16 | 38.98146 | -107.17135 | 37266 ft | 398 kts | 237° |
| 2026-04-20 03:16 | 38.96478 | -107.19991 | 37404 ft | 397 kts | 236° |
| 2026-04-20 03:17 | 38.95000 | -107.22517 | 37227 ft | 396 kts | 237° |
| 2026-04-20 03:17 | 38.93576 | -107.24953 | 37360 ft | 394 kts | 237° |
| 2026-04-20 03:17 | 38.91945 | -107.27742 | 37509 ft | 393 kts | 236° |
| 2026-04-20 03:17 | 38.90295 | -107.30557 | 37647 ft | 391 kts | 236° |
| 2026-04-20 03:18 | 38.88664 | -107.33340 | 37772 ft | 389 kts | 236° |
| 2026-04-20 03:18 | 38.87058 | -107.36077 | 37910 ft | 386 kts | 236° |
| 2026-04-20 03:18 | 38.85446 | -107.38818 | 38052 ft | 384 kts | 236° |
| 2026-04-20 03:18 | 38.83838 | -107.41554 | 38187 ft | 381 kts | 236° |
| 2026-04-20 03:19 | 38.82250 | -107.44254 | 38325 ft | 378 kts | 236° |
| 2026-04-20 03:19 | 38.80694 | -107.46896 | 38453 ft | 375 kts | 236° |
| 2026-04-20 03:19 | 38.79122 | -107.49562 | 38474 ft | 375 kts | 236° |
| 2026-04-20 03:20 | 38.75973 | -107.54898 | 38416 ft | 375 kts | 236° |
| 2026-04-20 03:20 | 38.74418 | -107.57533 | 38260 ft | 376 kts | 236° |
| 2026-04-20 03:20 | 38.73379 | -107.59287 | 38345 ft | 373 kts | 236° |
| 2026-04-20 03:20 | 38.71812 | -107.61939 | 38463 ft | 373 kts | 236° |
| 2026-04-20 03:21 | 38.70245 | -107.64587 | 38445 ft | 375 kts | 236° |
| 2026-04-20 03:21 | 38.67069 | -107.69946 | 38441 ft | 380 kts | 235° |
| 2026-04-20 03:22 | 38.63863 | -107.75344 | 38424 ft | 387 kts | 235° |
| 2026-04-20 03:22 | 38.60577 | -107.80871 | 38356 ft | 394 kts | 234° |
| 2026-04-20 03:23 | 38.57226 | -107.86494 | 38329 ft | 401 kts | 234° |
| 2026-04-20 03:23 | 38.53819 | -107.92199 | 38294 ft | 408 kts | 234° |
| 2026-04-20 03:24 | 38.50368 | -107.97970 | 38305 ft | 414 kts | 234° |
| 2026-04-20 03:24 | 38.46847 | -108.03847 | 38339 ft | 418 kts | 234° |
| 2026-04-20 03:25 | 38.43321 | -108.09722 | 38398 ft | 421 kts | 234° |
| 2026-04-20 03:25 | 38.39740 | -108.15677 | 38424 ft | 423 kts | 234° |
| 2026-04-20 03:26 | 38.36168 | -108.21610 | 38424 ft | 425 kts | 234° |
| 2026-04-20 03:26 | 38.32559 | -108.27592 | 38404 ft | 426 kts | 234° |
| 2026-04-20 03:27 | 38.28946 | -108.33571 | 38382 ft | 427 kts | 234° |
| 2026-04-20 03:27 | 38.25333 | -108.39535 | 38359 ft | 427 kts | 234° |
| 2026-04-20 03:28 | 38.21717 | -108.45490 | 38347 ft | 427 kts | 234° |
| 2026-04-20 03:28 | 38.16819 | -108.54845 | 38332 ft | 425 kts | 241° |
| 2026-04-20 03:29 | 38.13860 | -108.61311 | 38320 ft | 424 kts | 241° |
| 2026-04-20 03:29 | 38.10892 | -108.67807 | 38330 ft | 424 kts | 240° |
| 2026-04-20 03:30 | 38.08314 | -108.73444 | 38283 ft | 425 kts | 240° |
| 2026-04-20 03:30 | 38.06036 | -108.78416 | 38315 ft | 418 kts | 240° |
| 2026-04-20 03:31 | 38.04591 | -108.81563 | 38265 ft | 417 kts | 240° |
| 2026-04-20 03:31 | 38.01690 | -108.87878 | 38295 ft | 411 kts | 240° |
| 2026-04-20 03:32 | 38.00053 | -108.91435 | 38397 ft | 408 kts | 240° |
| 2026-04-20 03:32 | 37.96684 | -108.98745 | 38323 ft | 414 kts | 240° |
| 2026-04-20 03:33 | 37.93771 | -109.05051 | 38315 ft | 417 kts | 240° |
| 2026-04-20 03:33 | 37.90825 | -109.11419 | 38304 ft | 419 kts | 240° |
| 2026-04-20 03:34 | 37.87868 | -109.17797 | 38282 ft | 421 kts | 240° |
| 2026-04-20 03:34 | 37.84905 | -109.24175 | 38271 ft | 422 kts | 240° |
| 2026-04-20 03:35 | 37.81925 | -109.30574 | 38285 ft | 422 kts | 240° |
| 2026-04-20 03:35 | 37.78953 | -109.36945 | 38274 ft | 421 kts | 240° |
| 2026-04-20 03:36 | 37.75966 | -109.43340 | 38269 ft | 422 kts | 240° |
| 2026-04-20 03:36 | 37.72974 | -109.49728 | 38271 ft | 422 kts | 240° |
| 2026-04-20 03:37 | 37.69983 | -109.56102 | 38252 ft | 421 kts | 240° |
| 2026-04-20 03:37 | 37.67005 | -109.62435 | 38225 ft | 421 kts | 240° |
| 2026-04-20 03:38 | 37.64010 | -109.68797 | 38249 ft | 421 kts | 239° |
| 2026-04-20 03:38 | 37.61006 | -109.75163 | 38263 ft | 420 kts | 239° |
| 2026-04-20 03:39 | 37.58022 | -109.81473 | 38251 ft | 420 kts | 239° |
| 2026-04-20 03:39 | 37.55022 | -109.87805 | 38260 ft | 420 kts | 239° |
| 2026-04-20 03:40 | 37.52023 | -109.94125 | 38258 ft | 420 kts | 239° |
| 2026-04-20 03:40 | 37.49010 | -110.00461 | 38228 ft | 420 kts | 239° |
| 2026-04-20 03:41 | 37.46006 | -110.06764 | 38257 ft | 420 kts | 239° |
| 2026-04-20 03:41 | 37.42980 | -110.13101 | 38255 ft | 419 kts | 239° |
| 2026-04-20 03:42 | 37.39975 | -110.19384 | 38254 ft | 419 kts | 239° |
| 2026-04-20 03:42 | 37.36970 | -110.25653 | 38257 ft | 419 kts | 239° |
| 2026-04-20 03:43 | 37.33955 | -110.31932 | 38219 ft | 419 kts | 239° |
| 2026-04-20 03:43 | 37.30930 | -110.38224 | 38177 ft | 419 kts | 239° |
| 2026-04-20 03:44 | 37.27912 | -110.44480 | 38177 ft | 419 kts | 239° |
| 2026-04-20 03:44 | 37.24908 | -110.50703 | 38156 ft | 418 kts | 239° |
| 2026-04-20 03:45 | 37.21881 | -110.56958 | 38168 ft | 418 kts | 239° |
| 2026-04-20 03:45 | 37.18877 | -110.63158 | 38175 ft | 417 kts | 239° |
| 2026-04-20 03:46 | 37.15865 | -110.69358 | 38182 ft | 416 kts | 238° |
| 2026-04-20 03:46 | 37.12854 | -110.75548 | 38182 ft | 416 kts | 238° |
| 2026-04-20 03:47 | 37.09833 | -110.81747 | 38179 ft | 416 kts | 238° |
| 2026-04-20 03:47 | 37.06821 | -110.87907 | 38185 ft | 415 kts | 238° |
| 2026-04-20 03:48 | 37.03802 | -110.94080 | 38178 ft | 415 kts | 238° |
| 2026-04-20 03:48 | 37.00784 | -111.00242 | 38181 ft | 415 kts | 238° |
| 2026-04-20 03:49 | 36.97780 | -111.06358 | 38155 ft | 414 kts | 238° |
| 2026-04-20 03:49 | 36.94761 | -111.12494 | 38155 ft | 415 kts | 238° |
| 2026-04-20 03:50 | 36.91729 | -111.18641 | 38142 ft | 413 kts | 238° |
| 2026-04-20 03:50 | 36.88710 | -111.24760 | 38152 ft | 412 kts | 238° |
| 2026-04-20 03:51 | 36.85693 | -111.30856 | 38157 ft | 413 kts | 238° |
| 2026-04-20 03:51 | 36.82681 | -111.36935 | 38151 ft | 412 kts | 238° |
| 2026-04-20 03:52 | 36.79675 | -111.42989 | 38169 ft | 412 kts | 238° |
| 2026-04-20 03:52 | 36.76643 | -111.49084 | 38189 ft | 412 kts | 238° |
| 2026-04-20 03:53 | 36.73624 | -111.55146 | 38174 ft | 412 kts | 238° |
| 2026-04-20 03:53 | 36.70596 | -111.61211 | 38191 ft | 411 kts | 238° |
| 2026-04-20 03:54 | 36.67581 | -111.67239 | 38200 ft | 412 kts | 238° |
| 2026-04-20 03:54 | 36.64550 | -111.73286 | 38182 ft | 412 kts | 238° |
| 2026-04-20 03:55 | 36.61517 | -111.79331 | 38199 ft | 412 kts | 238° |
| 2026-04-20 03:55 | 36.58497 | -111.85339 | 38203 ft | 412 kts | 238° |
| 2026-04-20 03:56 | 36.55465 | -111.91360 | 38218 ft | 411 kts | 238° |
| 2026-04-20 03:56 | 36.52419 | -111.97392 | 38213 ft | 410 kts | 238° |
| 2026-04-20 03:57 | 36.49384 | -112.03394 | 38233 ft | 410 kts | 238° |
| 2026-04-20 03:57 | 36.46349 | -112.09393 | 38247 ft | 410 kts | 238° |
| 2026-04-20 03:58 | 36.43308 | -112.15388 | 38261 ft | 410 kts | 238° |
| 2026-04-20 03:58 | 36.40259 | -112.21390 | 38262 ft | 411 kts | 238° |
| 2026-04-20 03:59 | 36.37215 | -112.27365 | 38256 ft | 411 kts | 238° |
| 2026-04-20 03:59 | 36.34155 | -112.33369 | 38238 ft | 412 kts | 238° |
| 2026-04-20 04:00 | 36.31081 | -112.39387 | 38225 ft | 412 kts | 238° |
| 2026-04-20 04:00 | 36.28013 | -112.45376 | 38218 ft | 411 kts | 238° |
| 2026-04-20 04:01 | 36.24958 | -112.51337 | 38179 ft | 411 kts | 238° |
| 2026-04-20 04:01 | 36.21891 | -112.57312 | 38168 ft | 411 kts | 238° |
| 2026-04-20 04:02 | 36.18824 | -112.63271 | 38167 ft | 410 kts | 238° |
| 2026-04-20 04:02 | 36.15737 | -112.69263 | 38168 ft | 411 kts | 237° |
| 2026-04-20 04:03 | 36.12661 | -112.75223 | 38192 ft | 411 kts | 237° |
| 2026-04-20 04:03 | 36.09592 | -112.81149 | 38200 ft | 411 kts | 237° |
| 2026-04-20 04:04 | 36.06504 | -112.87112 | 38227 ft | 410 kts | 237° |
| 2026-04-20 04:04 | 35.85204 | -113.27941 | 38286 ft | 411 kts | 238° |
| 2026-04-20 04:05 | 35.60554 | -113.74686 | 38103 ft | 411 kts | 236° |
| 2026-04-20 04:05 | 35.35302 | -114.21770 | 38049 ft | 412 kts | 233° |
| 2026-04-20 04:05 | 35.28193 | -114.34902 | 38014 ft | 415 kts | 237° |
| 2026-04-20 04:06 | 35.17658 | -114.54340 | 37921 ft | 419 kts | 237° |
| 2026-04-20 04:06 | 35.08479 | -114.71498 | 38040 ft | 412 kts | 234° |
| 2026-04-20 04:07 | 35.05316 | -114.77278 | 38000 ft | 412 kts | 248° |
| 2026-04-20 04:07 | 35.04603 | -114.80655 | 38064 ft | 411 kts | 262° |
| 2026-04-20 04:07 | 35.04316 | -114.83613 | 38031 ft | 413 kts | 260° |
| 2026-04-20 04:08 | 35.03406 | -114.90511 | 37994 ft | 413 kts | 249° |
| 2026-04-20 04:08 | 35.00806 | -114.96764 | 38024 ft | 412 kts | 242° |
| 2026-04-20 04:09 | 34.92593 | -115.15675 | 37965 ft | 419 kts | 242° |
| 2026-04-20 04:09 | 34.83748 | -115.35943 | 37967 ft | 422 kts | 242° |
| 2026-04-20 04:10 | 34.80981 | -115.42259 | 37975 ft | 422 kts | 242° |
| 2026-04-20 04:10 | 34.78347 | -115.48607 | 37982 ft | 421 kts | 247° |
| 2026-04-20 04:11 | 34.75977 | -115.55144 | 37994 ft | 421 kts | 246° |
| 2026-04-20 04:11 | 34.73574 | -115.61674 | 37993 ft | 421 kts | 246° |
| 2026-04-20 04:12 | 34.71186 | -115.68148 | 37987 ft | 422 kts | 246° |
| 2026-04-20 04:12 | 34.68776 | -115.74672 | 37970 ft | 423 kts | 246° |
| 2026-04-20 04:13 | 34.66368 | -115.81176 | 37964 ft | 424 kts | 246° |
| 2026-04-20 04:13 | 34.63937 | -115.87727 | 37946 ft | 424 kts | 246° |
| 2026-04-20 04:14 | 34.61583 | -115.94105 | 37875 ft | 400 kts | 246° |
| 2026-04-20 04:14 | 34.60463 | -115.97145 | 37946 ft | 389 kts | 246° |
| 2026-04-20 04:14 | 34.59364 | -116.00124 | 37936 ft | 382 kts | 246° |
| 2026-04-20 04:15 | 34.57199 | -116.05986 | 37722 ft | 390 kts | 246° |
| 2026-04-20 04:15 | 34.56068 | -116.09045 | 37197 ft | 398 kts | 247° |
| 2026-04-20 04:15 | 34.54938 | -116.12097 | 36606 ft | 394 kts | 247° |
| 2026-04-20 04:16 | 34.53832 | -116.15080 | 36022 ft | 389 kts | 247° |
| 2026-04-20 04:16 | 34.52725 | -116.18062 | 35523 ft | 384 kts | 247° |
| 2026-04-20 04:16 | 34.51613 | -116.21060 | 35079 ft | 397 kts | 247° |
| 2026-04-20 04:16 | 34.50473 | -116.24128 | 34614 ft | 410 kts | 248° |
| 2026-04-20 04:17 | 34.49305 | -116.27262 | 34067 ft | 408 kts | 248° |
| 2026-04-20 04:17 | 34.48142 | -116.30389 | 33440 ft | 405 kts | 248° |
| 2026-04-20 04:17 | 34.46985 | -116.33498 | 32831 ft | 401 kts | 248° |
| 2026-04-20 04:17 | 34.45855 | -116.36535 | 32252 ft | 397 kts | 248° |
| 2026-04-20 04:18 | 34.44717 | -116.39582 | 31688 ft | 398 kts | 248° |
| 2026-04-20 04:18 | 34.43557 | -116.42691 | 31183 ft | 417 kts | 248° |
| 2026-04-20 04:18 | 34.42339 | -116.45945 | 30590 ft | 418 kts | 248° |
| 2026-04-20 04:18 | 34.41111 | -116.49105 | 30002 ft | 419 kts | 245° |
| 2026-04-20 04:19 | 34.39816 | -116.52245 | 29396 ft | 421 kts | 245° |
| 2026-04-20 04:19 | 34.38535 | -116.55355 | 28707 ft | 406 kts | 245° |
| 2026-04-20 04:19 | 34.37274 | -116.58417 | 28260 ft | 414 kts | 245° |
| 2026-04-20 04:19 | 34.35981 | -116.61554 | 27698 ft | 414 kts | 245° |
| 2026-04-20 04:20 | 34.34700 | -116.64657 | 27117 ft | 410 kts | 245° |
| 2026-04-20 04:20 | 34.33411 | -116.67785 | 26483 ft | 416 kts | 245° |
| 2026-04-20 04:20 | 34.32146 | -116.70936 | 25968 ft | 420 kts | 245° |
| 2026-04-20 04:20 | 34.30868 | -116.74118 | 25432 ft | 423 kts | 244° |
| 2026-04-20 04:21 | 34.29578 | -116.77321 | 24898 ft | 425 kts | 244° |
| 2026-04-20 04:21 | 34.28294 | -116.80509 | 24349 ft | 425 kts | 244° |
| 2026-04-20 04:21 | 34.27003 | -116.83713 | 23794 ft | 424 kts | 244° |
| 2026-04-20 04:21 | 34.25745 | -116.86832 | 23218 ft | 403 kts | 244° |
| 2026-04-20 04:22 | 34.24549 | -116.89796 | 22689 ft | 383 kts | 243° |
| 2026-04-20 04:22 | 34.23408 | -116.92615 | 22191 ft | 371 kts | 243° |
| 2026-04-20 04:22 | 34.22280 | -116.95403 | 21728 ft | 371 kts | 243° |
| 2026-04-20 04:22 | 34.21156 | -116.98226 | 21246 ft | 374 kts | 248° |
| 2026-04-20 04:23 | 34.20337 | -117.01207 | 20773 ft | 374 kts | 250° |
| 2026-04-20 04:23 | 34.19531 | -117.04166 | 20269 ft | 370 kts | 250° |
| 2026-04-20 04:23 | 34.18735 | -117.07108 | 19868 ft | 370 kts | 250° |
| 2026-04-20 04:23 | 34.17934 | -117.10057 | 19350 ft | 369 kts | 250° |
| 2026-04-20 04:24 | 34.17142 | -117.12974 | 18750 ft | 360 kts | 250° |
| 2026-04-20 04:24 | 34.16383 | -117.15771 | 18219 ft | 344 kts | 250° |
| 2026-04-20 04:24 | 34.15651 | -117.18436 | 17832 ft | 336 kts | 250° |
| 2026-04-20 04:24 | 34.14921 | -117.21087 | 17386 ft | 332 kts | 250° |
| 2026-04-20 04:25 | 34.14196 | -117.23725 | 16951 ft | 328 kts | 250° |
| 2026-04-20 04:25 | 34.13479 | -117.26331 | 16520 ft | 327 kts | 249° |
| 2026-04-20 04:25 | 34.12768 | -117.28913 | 16092 ft | 326 kts | 249° |
| 2026-04-20 04:25 | 34.12052 | -117.31498 | 15659 ft | 326 kts | 249° |
| 2026-04-20 04:26 | 34.11338 | -117.34087 | 15230 ft | 324 kts | 249° |
| 2026-04-20 04:26 | 34.10628 | -117.36655 | 14797 ft | 322 kts | 249° |
| 2026-04-20 04:26 | 34.09985 | -117.39191 | 14364 ft | 319 kts | 251° |
| 2026-04-20 04:26 | 34.09356 | -117.41711 | 13894 ft | 307 kts | 251° |
| 2026-04-20 04:27 | 34.08751 | -117.44134 | 13500 ft | 303 kts | 250° |
| 2026-04-20 04:27 | 34.08136 | -117.46571 | 13139 ft | 305 kts | 251° |
| 2026-04-20 04:27 | 34.07521 | -117.49029 | 13077 ft | 303 kts | 251° |
| 2026-04-20 04:27 | 34.06761 | -117.51389 | 12815 ft | 307 kts | 243° |
| 2026-04-20 04:28 | 34.05919 | -117.53724 | 12264 ft | 302 kts | 244° |
| 2026-04-20 04:28 | 34.05090 | -117.56033 | 11747 ft | 302 kts | 244° |
| 2026-04-20 04:28 | 34.04256 | -117.58330 | 11225 ft | 296 kts | 239° |
| 2026-04-20 04:28 | 34.03370 | -117.60556 | 10774 ft | 298 kts | 245° |
| 2026-04-20 04:29 | 34.02647 | -117.62901 | 10547 ft | 292 kts | 249° |
| 2026-04-20 04:29 | 34.02054 | -117.65228 | 10475 ft | 294 kts | 251° |
| 2026-04-20 04:29 | 34.01526 | -117.67602 | 10397 ft | 297 kts | 253° |
| 2026-04-20 04:29 | 34.00997 | -117.70011 | 10216 ft | 295 kts | 249° |
| 2026-04-20 04:30 | 34.00397 | -117.72337 | 10147 ft | 288 kts | 251° |
| 2026-04-20 04:30 | 34.00086 | -117.74719 | 9872 ft | 284 kts | 260° |
| 2026-04-20 04:30 | 33.99862 | -117.77026 | 9619 ft | 277 kts | 260° |
| 2026-04-20 04:30 | 33.99640 | -117.79305 | 9257 ft | 267 kts | 260° |
| 2026-04-20 04:31 | 33.99430 | -117.81472 | 8968 ft | 256 kts | 260° |
| 2026-04-20 04:31 | 33.99231 | -117.83548 | 8689 ft | 247 kts | 260° |
| 2026-04-20 04:31 | 33.99032 | -117.85573 | 8409 ft | 238 kts | 259° |
| 2026-04-20 04:31 | 33.98837 | -117.87528 | 8192 ft | 236 kts | 260° |
| 2026-04-20 04:32 | 33.98642 | -117.89525 | 7960 ft | 240 kts | 260° |
| 2026-04-20 04:32 | 33.98447 | -117.91518 | 7683 ft | 239 kts | 260° |
| 2026-04-20 04:32 | 33.98251 | -117.93493 | 7400 ft | 237 kts | 259° |
| 2026-04-20 04:32 | 33.98056 | -117.95455 | 7108 ft | 236 kts | 260° |
| 2026-04-20 04:33 | 33.97861 | -117.97426 | 6807 ft | 235 kts | 260° |
| 2026-04-20 04:33 | 33.97666 | -117.99390 | 6501 ft | 235 kts | 260° |
| 2026-04-20 04:33 | 33.97472 | -118.01341 | 6194 ft | 234 kts | 260° |
| 2026-04-20 04:33 | 33.97280 | -118.03268 | 5887 ft | 233 kts | 260° |
| 2026-04-20 04:34 | 33.97087 | -118.05203 | 5591 ft | 230 kts | 261° |
| 2026-04-20 04:34 | 33.96898 | -118.07099 | 5273 ft | 228 kts | 261° |
| 2026-04-20 04:34 | 33.96708 | -118.08991 | 4964 ft | 226 kts | 261° |
| 2026-04-20 04:34 | 33.96521 | -118.10861 | 4653 ft | 224 kts | 261° |
| 2026-04-20 04:35 | 33.96335 | -118.12711 | 4350 ft | 222 kts | 262° |
| 2026-04-20 04:35 | 33.96153 | -118.14526 | 4062 ft | 218 kts | 262° |
| 2026-04-20 04:35 | 33.95973 | -118.16316 | 3760 ft | 215 kts | 262° |
| 2026-04-20 04:35 | 33.95792 | -118.18089 | 3456 ft | 212 kts | 262° |
| 2026-04-20 04:36 | 33.95454 | -118.21446 | 2854 ft | 191 kts | 262° |
| 2026-04-20 04:36 | 33.95299 | -118.22986 | 2592 ft | 180 kts | 262° |
| 2026-04-20 04:36 | 33.95149 | -118.24465 | 2357 ft | 180 kts | 262° |
| 2026-04-20 04:37 | 33.94995 | -118.25964 | 2136 ft | 183 kts | 262° |
| 2026-04-20 04:37 | 33.94842 | -118.27483 | 1888 ft | 182 kts | 262° |
| 2026-04-20 04:37 | 33.94689 | -118.28999 | 1644 ft | 179 kts | 262° |
| 2026-04-20 04:37 | 33.94544 | -118.30422 | 1445 ft | 160 kts | 262° |
| 2026-04-20 04:38 | 33.94411 | -118.31714 | 1198 ft | 154 kts | 262° |
| 2026-04-20 04:38 | 33.94280 | -118.32992 | 1007 ft | 156 kts | 262° |
| 2026-04-20 04:38 | 33.94145 | -118.34295 | 791 ft | 156 kts | 262° |
| 2026-04-20 04:38 | 33.94014 | -118.35583 | 578 ft | 154 kts | 262° |
| 2026-04-20 04:39 | 33.93885 | -118.36845 | 375 ft | 152 kts | 262° |
| 2026-04-20 04:39 | 33.93760 | -118.38110 | 177 ft | 150 kts | 263° |
| 2026-04-20 04:39 | 33.93639 | -118.39284 | 107 ft | 121 kts | 261° |
| 2026-04-20 04:39 | 33.93562 | -118.40096 | 118 ft | 73 kts | 270° |
| 2026-04-20 04:40 | 33.93538 | -118.40422 | 121 ft | 25 kts | 269° |
| 2026-04-20 04:40 | 33.93574 | -118.40581 | 124 ft | 11 kts | 291° |
| 2026-04-20 04:40 | 33.93599 | -118.40664 | 125 ft | 9 kts | 286° |
| 2026-04-20 04:40 | 33.93599 | -118.40711 | 125 ft | 0 kts | 264° |